sensor_id;sensor_type;location;lat;lon;timestamp;P1;durP1;ratioP1;P2;durP2;ratioP2
773;SDS011;370;48.810;9.150;2024-01-07T00:02:10;6.13;;;3.90;;
773;SDS011;370;48.810;9.150;2024-01-07T00:04:37;12.55;;;4.28;;
773;SDS011;370;48.810;9.150;2024-01-07T00:07:03;11.80;;;5.07;;
773;SDS011;370;48.810;9.150;2024-01-07T00:09:30;10.23;;;4.97;;
773;SDS011;370;48.810;9.150;2024-01-07T00:11:57;7.70;;;3.03;;
773;SDS011;370;48.810;9.150;2024-01-07T00:14:24;9.20;;;3.00;;
773;SDS011;370;48.810;9.150;2024-01-07T00:16:52;9.20;;;4.05;;
773;SDS011;370;48.810;9.150;2024-01-07T00:19:19;9.43;;;4.47;;
773;SDS011;370;48.810;9.150;2024-01-07T00:21:45;8.45;;;3.33;;
773;SDS011;370;48.810;9.150;2024-01-07T00:24:12;12.73;;;3.28;;
773;SDS011;370;48.810;9.150;2024-01-07T00:26:39;17.27;;;5.05;;
773;SDS011;370;48.810;9.150;2024-01-07T00:29:06;11.65;;;4.32;;
773;SDS011;370;48.810;9.150;2024-01-07T00:31:32;9.95;;;4.55;;
773;SDS011;370;48.810;9.150;2024-01-07T00:34:00;9.23;;;4.43;;
773;SDS011;370;48.810;9.150;2024-01-07T00:36:27;8.18;;;3.70;;
773;SDS011;370;48.810;9.150;2024-01-07T00:38:54;13.82;;;5.15;;
773;SDS011;370;48.810;9.150;2024-01-07T00:41:21;8.85;;;4.05;;
773;SDS011;370;48.810;9.150;2024-01-07T00:43:47;9.45;;;3.95;;
773;SDS011;370;48.810;9.150;2024-01-07T00:46:14;9.48;;;4.25;;
773;SDS011;370;48.810;9.150;2024-01-07T00:48:41;9.77;;;3.60;;
773;SDS011;370;48.810;9.150;2024-01-07T00:51:09;10.10;;;3.78;;
773;SDS011;370;48.810;9.150;2024-01-07T00:53:35;9.30;;;4.78;;
773;SDS011;370;48.810;9.150;2024-01-07T00:56:02;19.52;;;4.50;;
773;SDS011;370;48.810;9.150;2024-01-07T00:58:30;10.10;;;4.78;;
773;SDS011;370;48.810;9.150;2024-01-07T01:00:56;7.45;;;3.17;;
773;SDS011;370;48.810;9.150;2024-01-07T01:03:25;9.18;;;4.18;;
773;SDS011;370;48.810;9.150;2024-01-07T01:05:51;4.85;;;3.00;;
773;SDS011;370;48.810;9.150;2024-01-07T01:08:19;24.98;;;4.78;;
773;SDS011;370;48.810;9.150;2024-01-07T01:10:46;11.82;;;5.10;;
773;SDS011;370;48.810;9.150;2024-01-07T01:13:13;13.75;;;4.63;;
773;SDS011;370;48.810;9.150;2024-01-07T01:15:40;12.48;;;4.40;;
773;SDS011;370;48.810;9.150;2024-01-07T01:18:07;8.20;;;3.80;;
773;SDS011;370;48.810;9.150;2024-01-07T01:20:33;12.57;;;5.30;;
773;SDS011;370;48.810;9.150;2024-01-07T01:23:00;14.52;;;5.00;;
773;SDS011;370;48.810;9.150;2024-01-07T01:25:28;16.27;;;5.95;;
773;SDS011;370;48.810;9.150;2024-01-07T01:27:55;12.90;;;6.47;;
773;SDS011;370;48.810;9.150;2024-01-07T01:30:22;9.02;;;4.07;;
773;SDS011;370;48.810;9.150;2024-01-07T01:32:49;17.33;;;4.47;;
773;SDS011;370;48.810;9.150;2024-01-07T01:35:16;12.88;;;5.88;;
773;SDS011;370;48.810;9.150;2024-01-07T01:37:42;16.30;;;5.93;;
773;SDS011;370;48.810;9.150;2024-01-07T01:40:09;15.38;;;5.20;;
773;SDS011;370;48.810;9.150;2024-01-07T01:42:38;13.52;;;5.20;;
773;SDS011;370;48.810;9.150;2024-01-07T01:45:08;20.73;;;4.82;;
773;SDS011;370;48.810;9.150;2024-01-07T01:47:35;14.02;;;5.70;;
773;SDS011;370;48.810;9.150;2024-01-07T01:50:02;16.42;;;5.50;;
773;SDS011;370;48.810;9.150;2024-01-07T01:52:30;17.63;;;5.45;;
773;SDS011;370;48.810;9.150;2024-01-07T01:54:57;15.70;;;5.97;;
773;SDS011;370;48.810;9.150;2024-01-07T01:57:28;15.43;;;4.38;;
773;SDS011;370;48.810;9.150;2024-01-07T02:00:00;18.50;;;7.90;;
773;SDS011;370;48.810;9.150;2024-01-07T02:02:29;18.45;;;5.80;;
773;SDS011;370;48.810;9.150;2024-01-07T02:04:59;14.75;;;5.35;;
773;SDS011;370;48.810;9.150;2024-01-07T02:07:26;20.27;;;5.45;;
773;SDS011;370;48.810;9.150;2024-01-07T02:09:53;24.35;;;6.95;;
773;SDS011;370;48.810;9.150;2024-01-07T02:12:20;22.25;;;7.53;;
773;SDS011;370;48.810;9.150;2024-01-07T02:14:47;12.02;;;4.75;;
773;SDS011;370;48.810;9.150;2024-01-07T02:17:16;10.60;;;5.10;;
773;SDS011;370;48.810;9.150;2024-01-07T02:19:44;10.70;;;4.63;;
773;SDS011;370;48.810;9.150;2024-01-07T02:22:10;17.98;;;5.60;;
773;SDS011;370;48.810;9.150;2024-01-07T02:24:38;22.88;;;5.78;;
773;SDS011;370;48.810;9.150;2024-01-07T02:27:05;18.67;;;5.85;;
773;SDS011;370;48.810;9.150;2024-01-07T02:29:32;14.50;;;4.53;;
773;SDS011;370;48.810;9.150;2024-01-07T02:31:59;10.88;;;4.45;;
773;SDS011;370;48.810;9.150;2024-01-07T02:34:25;12.75;;;5.28;;
773;SDS011;370;48.810;9.150;2024-01-07T02:36:52;17.63;;;7.13;;
773;SDS011;370;48.810;9.150;2024-01-07T02:39:19;11.93;;;4.57;;
773;SDS011;370;48.810;9.150;2024-01-07T02:41:47;15.70;;;5.72;;
773;SDS011;370;48.810;9.150;2024-01-07T02:44:15;11.85;;;4.82;;
773;SDS011;370;48.810;9.150;2024-01-07T02:46:41;6.78;;;3.95;;
773;SDS011;370;48.810;9.150;2024-01-07T02:49:08;11.70;;;3.80;;
773;SDS011;370;48.810;9.150;2024-01-07T02:51:35;13.77;;;4.88;;
773;SDS011;370;48.810;9.150;2024-01-07T02:54:02;10.98;;;4.63;;
773;SDS011;370;48.810;9.150;2024-01-07T02:56:28;11.98;;;4.32;;
773;SDS011;370;48.810;9.150;2024-01-07T02:58:56;14.88;;;5.57;;
773;SDS011;370;48.810;9.150;2024-01-07T03:01:23;10.55;;;4.32;;
773;SDS011;370;48.810;9.150;2024-01-07T03:03:50;19.38;;;5.00;;
773;SDS011;370;48.810;9.150;2024-01-07T03:06:17;9.07;;;3.15;;
773;SDS011;370;48.810;9.150;2024-01-07T03:08:43;15.95;;;5.40;;
773;SDS011;370;48.810;9.150;2024-01-07T03:11:10;9.55;;;3.92;;
773;SDS011;370;48.810;9.150;2024-01-07T03:13:37;15.00;;;5.03;;
773;SDS011;370;48.810;9.150;2024-01-07T03:16:05;16.48;;;4.10;;
773;SDS011;370;48.810;9.150;2024-01-07T03:18:32;11.35;;;4.82;;
773;SDS011;370;48.810;9.150;2024-01-07T03:20:59;7.70;;;3.20;;
773;SDS011;370;48.810;9.150;2024-01-07T03:23:26;11.35;;;3.55;;
773;SDS011;370;48.810;9.150;2024-01-07T03:25:52;11.30;;;4.18;;
773;SDS011;370;48.810;9.150;2024-01-07T03:28:19;14.93;;;4.47;;
773;SDS011;370;48.810;9.150;2024-01-07T03:30:46;13.07;;;4.97;;
773;SDS011;370;48.810;9.150;2024-01-07T03:33:14;11.13;;;3.85;;
773;SDS011;370;48.810;9.150;2024-01-07T03:35:41;11.82;;;4.90;;
773;SDS011;370;48.810;9.150;2024-01-07T03:38:07;13.90;;;5.43;;
773;SDS011;370;48.810;9.150;2024-01-07T03:40:34;12.00;;;4.80;;
773;SDS011;370;48.810;9.150;2024-01-07T03:43:01;11.43;;;4.47;;
773;SDS011;370;48.810;9.150;2024-01-07T03:45:27;12.57;;;3.70;;
773;SDS011;370;48.810;9.150;2024-01-07T03:47:54;20.98;;;6.40;;
773;SDS011;370;48.810;9.150;2024-01-07T03:50:22;15.93;;;6.20;;
773;SDS011;370;48.810;9.150;2024-01-07T03:52:49;14.93;;;4.13;;
773;SDS011;370;48.810;9.150;2024-01-07T03:55:16;19.17;;;4.88;;
773;SDS011;370;48.810;9.150;2024-01-07T03:57:43;19.02;;;6.00;;
773;SDS011;370;48.810;9.150;2024-01-07T04:00:10;8.65;;;3.47;;
773;SDS011;370;48.810;9.150;2024-01-07T04:02:37;20.77;;;5.82;;
773;SDS011;370;48.810;9.150;2024-01-07T04:05:04;14.10;;;3.70;;
773;SDS011;370;48.810;9.150;2024-01-07T04:07:33;10.45;;;4.35;;
773;SDS011;370;48.810;9.150;2024-01-07T04:10:00;13.85;;;4.32;;
773;SDS011;370;48.810;9.150;2024-01-07T04:12:27;18.23;;;4.80;;
773;SDS011;370;48.810;9.150;2024-01-07T04:14:54;10.32;;;4.78;;
773;SDS011;370;48.810;9.150;2024-01-07T04:17:21;16.83;;;4.93;;
773;SDS011;370;48.810;9.150;2024-01-07T04:19:47;12.75;;;4.70;;
773;SDS011;370;48.810;9.150;2024-01-07T04:22:14;14.18;;;4.88;;
773;SDS011;370;48.810;9.150;2024-01-07T04:24:42;13.20;;;3.03;;
773;SDS011;370;48.810;9.150;2024-01-07T04:27:09;6.80;;;3.47;;
773;SDS011;370;48.810;9.150;2024-01-07T04:29:36;8.63;;;4.10;;
773;SDS011;370;48.810;9.150;2024-01-07T04:32:03;6.07;;;3.20;;
773;SDS011;370;48.810;9.150;2024-01-07T04:34:29;8.90;;;3.70;;
773;SDS011;370;48.810;9.150;2024-01-07T04:36:56;11.80;;;4.68;;
773;SDS011;370;48.810;9.150;2024-01-07T04:39:23;8.35;;;3.75;;
773;SDS011;370;48.810;9.150;2024-01-07T04:41:51;11.60;;;3.90;;
773;SDS011;370;48.810;9.150;2024-01-07T04:44:18;6.30;;;3.10;;
773;SDS011;370;48.810;9.150;2024-01-07T04:46:45;7.68;;;3.42;;
773;SDS011;370;48.810;9.150;2024-01-07T04:49:13;9.68;;;3.55;;
773;SDS011;370;48.810;9.150;2024-01-07T04:51:40;13.55;;;4.43;;
773;SDS011;370;48.810;9.150;2024-01-07T04:54:06;8.60;;;3.63;;
773;SDS011;370;48.810;9.150;2024-01-07T04:56:33;11.15;;;3.42;;
773;SDS011;370;48.810;9.150;2024-01-07T04:59:01;12.75;;;5.28;;
773;SDS011;370;48.810;9.150;2024-01-07T05:01:28;11.77;;;4.80;;
773;SDS011;370;48.810;9.150;2024-01-07T05:03:55;7.63;;;3.10;;
773;SDS011;370;48.810;9.150;2024-01-07T05:06:21;7.38;;;3.85;;
773;SDS011;370;48.810;9.150;2024-01-07T05:08:48;10.82;;;4.45;;
773;SDS011;370;48.810;9.150;2024-01-07T05:11:15;12.32;;;4.88;;
773;SDS011;370;48.810;9.150;2024-01-07T05:13:42;24.60;;;4.60;;
773;SDS011;370;48.810;9.150;2024-01-07T05:16:17;10.02;;;4.35;;
773;SDS011;370;48.810;9.150;2024-01-07T05:18:44;8.98;;;3.50;;
773;SDS011;370;48.810;9.150;2024-01-07T05:21:13;5.60;;;2.75;;
773;SDS011;370;48.810;9.150;2024-01-07T05:23:40;8.57;;;3.60;;
773;SDS011;370;48.810;9.150;2024-01-07T05:26:07;10.80;;;4.57;;
773;SDS011;370;48.810;9.150;2024-01-07T05:28:33;12.35;;;4.95;;
773;SDS011;370;48.810;9.150;2024-01-07T05:31:00;7.93;;;3.65;;
773;SDS011;370;48.810;9.150;2024-01-07T05:33:28;11.43;;;5.57;;
773;SDS011;370;48.810;9.150;2024-01-07T05:35:55;7.90;;;3.08;;
773;SDS011;370;48.810;9.150;2024-01-07T05:38:22;9.30;;;3.05;;
773;SDS011;370;48.810;9.150;2024-01-07T05:40:49;20.33;;;4.90;;
773;SDS011;370;48.810;9.150;2024-01-07T05:43:16;8.18;;;2.83;;
773;SDS011;370;48.810;9.150;2024-01-07T05:45:43;8.93;;;3.13;;
773;SDS011;370;48.810;9.150;2024-01-07T05:48:10;6.07;;;2.92;;
773;SDS011;370;48.810;9.150;2024-01-07T05:50:38;5.47;;;2.85;;
773;SDS011;370;48.810;9.150;2024-01-07T05:53:05;6.68;;;2.95;;
773;SDS011;370;48.810;9.150;2024-01-07T05:55:31;7.15;;;3.58;;
773;SDS011;370;48.810;9.150;2024-01-07T05:57:58;8.10;;;3.95;;
773;SDS011;370;48.810;9.150;2024-01-07T06:00:25;12.63;;;3.30;;
773;SDS011;370;48.810;9.150;2024-01-07T06:02:52;7.40;;;3.17;;
773;SDS011;370;48.810;9.150;2024-01-07T06:05:18;7.88;;;3.30;;
773;SDS011;370;48.810;9.150;2024-01-07T06:07:46;7.40;;;3.50;;
773;SDS011;370;48.810;9.150;2024-01-07T06:10:13;10.50;;;4.10;;
773;SDS011;370;48.810;9.150;2024-01-07T06:12:40;7.25;;;3.33;;
773;SDS011;370;48.810;9.150;2024-01-07T06:15:07;8.85;;;4.30;;
773;SDS011;370;48.810;9.150;2024-01-07T06:17:34;7.05;;;3.10;;
773;SDS011;370;48.810;9.150;2024-01-07T06:20:01;11.38;;;4.05;;
773;SDS011;370;48.810;9.150;2024-01-07T06:22:28;13.63;;;4.50;;
773;SDS011;370;48.810;9.150;2024-01-07T06:24:56;9.80;;;3.85;;
773;SDS011;370;48.810;9.150;2024-01-07T06:27:23;14.77;;;4.38;;
773;SDS011;370;48.810;9.150;2024-01-07T06:29:50;9.10;;;2.67;;
773;SDS011;370;48.810;9.150;2024-01-07T06:32:16;5.95;;;2.30;;
773;SDS011;370;48.810;9.150;2024-01-07T06:34:43;9.45;;;5.15;;
773;SDS011;370;48.810;9.150;2024-01-07T06:37:10;8.00;;;3.75;;
773;SDS011;370;48.810;9.150;2024-01-07T06:39:37;12.68;;;3.92;;
773;SDS011;370;48.810;9.150;2024-01-07T06:42:05;5.15;;;2.95;;
773;SDS011;370;48.810;9.150;2024-01-07T06:44:32;5.53;;;3.15;;
773;SDS011;370;48.810;9.150;2024-01-07T06:46:59;9.27;;;3.20;;
773;SDS011;370;48.810;9.150;2024-01-07T06:49:25;12.00;;;3.58;;
773;SDS011;370;48.810;9.150;2024-01-07T06:51:52;9.30;;;2.75;;
773;SDS011;370;48.810;9.150;2024-01-07T06:54:19;7.88;;;3.17;;
773;SDS011;370;48.810;9.150;2024-01-07T06:56:45;13.70;;;4.28;;
773;SDS011;370;48.810;9.150;2024-01-07T06:59:14;7.47;;;2.95;;
773;SDS011;370;48.810;9.150;2024-01-07T07:01:40;7.95;;;4.05;;
773;SDS011;370;48.810;9.150;2024-01-07T07:04:07;8.18;;;4.20;;
773;SDS011;370;48.810;9.150;2024-01-07T07:06:34;7.38;;;2.88;;
773;SDS011;370;48.810;9.150;2024-01-07T07:09:01;10.57;;;4.00;;
773;SDS011;370;48.810;9.150;2024-01-07T07:11:27;24.23;;;4.18;;
773;SDS011;370;48.810;9.150;2024-01-07T07:13:54;5.75;;;3.20;;
773;SDS011;370;48.810;9.150;2024-01-07T07:16:22;3.92;;;3.15;;
773;SDS011;370;48.810;9.150;2024-01-07T07:18:50;7.80;;;2.90;;
773;SDS011;370;48.810;9.150;2024-01-07T07:21:17;5.22;;;2.70;;
773;SDS011;370;48.810;9.150;2024-01-07T07:23:44;6.88;;;3.85;;
773;SDS011;370;48.810;9.150;2024-01-07T07:26:11;5.70;;;3.13;;
773;SDS011;370;48.810;9.150;2024-01-07T07:28:37;3.90;;;2.13;;
773;SDS011;370;48.810;9.150;2024-01-07T07:31:04;10.25;;;2.80;;
773;SDS011;370;48.810;9.150;2024-01-07T07:33:32;6.43;;;4.05;;
773;SDS011;370;48.810;9.150;2024-01-07T07:35:59;5.15;;;2.72;;
773;SDS011;370;48.810;9.150;2024-01-07T07:38:26;4.28;;;2.67;;
773;SDS011;370;48.810;9.150;2024-01-07T07:40:53;3.08;;;2.00;;
773;SDS011;370;48.810;9.150;2024-01-07T07:43:19;5.88;;;2.85;;
773;SDS011;370;48.810;9.150;2024-01-07T07:45:46;9.40;;;2.38;;
773;SDS011;370;48.810;9.150;2024-01-07T07:48:13;4.38;;;1.90;;
773;SDS011;370;48.810;9.150;2024-01-07T07:50:41;5.72;;;2.55;;
773;SDS011;370;48.810;9.150;2024-01-07T07:53:08;14.80;;;2.47;;
773;SDS011;370;48.810;9.150;2024-01-07T07:55:35;5.03;;;2.60;;
773;SDS011;370;48.810;9.150;2024-01-07T07:58:01;9.45;;;3.83;;
773;SDS011;370;48.810;9.150;2024-01-07T08:00:28;4.68;;;2.72;;
773;SDS011;370;48.810;9.150;2024-01-07T08:02:55;4.78;;;3.20;;
773;SDS011;370;48.810;9.150;2024-01-07T08:05:22;3.47;;;2.30;;
773;SDS011;370;48.810;9.150;2024-01-07T08:07:50;4.70;;;2.75;;
773;SDS011;370;48.810;9.150;2024-01-07T08:10:16;3.28;;;1.80;;
773;SDS011;370;48.810;9.150;2024-01-07T08:12:43;6.55;;;2.78;;
773;SDS011;370;48.810;9.150;2024-01-07T08:15:10;2.17;;;1.58;;
773;SDS011;370;48.810;9.150;2024-01-07T08:17:38;2.63;;;1.60;;
773;SDS011;370;48.810;9.150;2024-01-07T08:20:05;2.45;;;1.63;;
773;SDS011;370;48.810;9.150;2024-01-07T08:22:32;3.30;;;2.65;;
773;SDS011;370;48.810;9.150;2024-01-07T08:25:00;4.25;;;2.65;;
773;SDS011;370;48.810;9.150;2024-01-07T08:27:27;5.28;;;1.98;;
773;SDS011;370;48.810;9.150;2024-01-07T08:29:54;5.38;;;2.80;;
773;SDS011;370;48.810;9.150;2024-01-07T08:32:21;4.78;;;2.88;;
773;SDS011;370;48.810;9.150;2024-01-07T08:34:48;4.95;;;2.05;;
773;SDS011;370;48.810;9.150;2024-01-07T08:37:15;4.88;;;2.35;;
773;SDS011;370;48.810;9.150;2024-01-07T08:39:42;7.93;;;2.65;;
773;SDS011;370;48.810;9.150;2024-01-07T08:42:10;9.20;;;2.63;;
773;SDS011;370;48.810;9.150;2024-01-07T08:44:37;4.65;;;2.10;;
773;SDS011;370;48.810;9.150;2024-01-07T08:47:04;12.18;;;4.03;;
773;SDS011;370;48.810;9.150;2024-01-07T08:49:31;4.80;;;2.80;;
773;SDS011;370;48.810;9.150;2024-01-07T08:51:59;6.78;;;3.22;;
773;SDS011;370;48.810;9.150;2024-01-07T08:54:25;5.00;;;1.95;;
773;SDS011;370;48.810;9.150;2024-01-07T08:56:52;2.70;;;1.13;;
773;SDS011;370;48.810;9.150;2024-01-07T08:59:20;3.42;;;1.63;;
773;SDS011;370;48.810;9.150;2024-01-07T09:01:47;2.20;;;1.90;;
773;SDS011;370;48.810;9.150;2024-01-07T09:04:14;4.10;;;2.00;;
773;SDS011;370;48.810;9.150;2024-01-07T09:06:42;5.82;;;2.38;;
773;SDS011;370;48.810;9.150;2024-01-07T09:09:09;3.15;;;2.15;;
773;SDS011;370;48.810;9.150;2024-01-07T09:11:36;4.97;;;1.33;;
773;SDS011;370;48.810;9.150;2024-01-07T09:14:03;9.35;;;2.03;;
773;SDS011;370;48.810;9.150;2024-01-07T09:16:31;4.50;;;2.60;;
773;SDS011;370;48.810;9.150;2024-01-07T09:18:58;5.80;;;1.95;;
773;SDS011;370;48.810;9.150;2024-01-07T09:21:25;2.80;;;1.92;;
773;SDS011;370;48.810;9.150;2024-01-07T09:23:51;5.35;;;1.88;;
773;SDS011;370;48.810;9.150;2024-01-07T09:26:18;5.32;;;1.92;;
773;SDS011;370;48.810;9.150;2024-01-07T09:28:45;12.48;;;2.50;;
773;SDS011;370;48.810;9.150;2024-01-07T09:31:12;8.43;;;2.05;;
773;SDS011;370;48.810;9.150;2024-01-07T09:33:40;3.95;;;2.08;;
773;SDS011;370;48.810;9.150;2024-01-07T09:36:07;5.15;;;1.40;;
773;SDS011;370;48.810;9.150;2024-01-07T09:38:34;2.10;;;1.67;;
773;SDS011;370;48.810;9.150;2024-01-07T09:41:00;3.08;;;1.85;;
773;SDS011;370;48.810;9.150;2024-01-07T09:43:27;6.93;;;1.65;;
773;SDS011;370;48.810;9.150;2024-01-07T09:45:54;6.68;;;1.73;;
773;SDS011;370;48.810;9.150;2024-01-07T09:48:23;1.90;;;1.63;;
773;SDS011;370;48.810;9.150;2024-01-07T09:50:51;4.05;;;1.67;;
773;SDS011;370;48.810;9.150;2024-01-07T09:53:19;1.70;;;1.25;;
773;SDS011;370;48.810;9.150;2024-01-07T09:55:47;2.80;;;1.50;;
773;SDS011;370;48.810;9.150;2024-01-07T09:58:19;3.70;;;1.23;;
773;SDS011;370;48.810;9.150;2024-01-07T10:00:46;3.58;;;1.98;;
773;SDS011;370;48.810;9.150;2024-01-07T10:03:13;3.15;;;1.67;;
773;SDS011;370;48.810;9.150;2024-01-07T10:05:40;2.28;;;1.77;;
773;SDS011;370;48.810;9.150;2024-01-07T10:08:08;2.28;;;1.45;;
773;SDS011;370;48.810;9.150;2024-01-07T10:10:35;7.20;;;2.28;;
773;SDS011;370;48.810;9.150;2024-01-07T10:13:03;2.65;;;1.55;;
773;SDS011;370;48.810;9.150;2024-01-07T10:15:31;3.30;;;1.30;;
773;SDS011;370;48.810;9.150;2024-01-07T10:18:02;4.63;;;2.00;;
773;SDS011;370;48.810;9.150;2024-01-07T10:20:31;4.30;;;1.77;;
773;SDS011;370;48.810;9.150;2024-01-07T10:22:58;2.67;;;1.42;;
773;SDS011;370;48.810;9.150;2024-01-07T10:25:27;7.97;;;2.65;;
773;SDS011;370;48.810;9.150;2024-01-07T10:27:54;3.85;;;2.10;;
773;SDS011;370;48.810;9.150;2024-01-07T10:30:24;4.35;;;1.58;;
773;SDS011;370;48.810;9.150;2024-01-07T10:32:53;3.65;;;1.38;;
773;SDS011;370;48.810;9.150;2024-01-07T10:35:22;8.45;;;2.25;;
773;SDS011;370;48.810;9.150;2024-01-07T10:37:53;1.88;;;1.60;;
773;SDS011;370;48.810;9.150;2024-01-07T10:40:23;4.00;;;1.80;;
773;SDS011;370;48.810;9.150;2024-01-07T10:42:52;3.55;;;2.00;;
773;SDS011;370;48.810;9.150;2024-01-07T10:45:21;6.72;;;2.60;;
773;SDS011;370;48.810;9.150;2024-01-07T10:47:48;4.63;;;2.33;;
773;SDS011;370;48.810;9.150;2024-01-07T10:50:16;4.75;;;1.40;;
773;SDS011;370;48.810;9.150;2024-01-07T10:52:46;4.65;;;2.30;;
773;SDS011;370;48.810;9.150;2024-01-07T10:55:17;2.25;;;1.33;;
773;SDS011;370;48.810;9.150;2024-01-07T10:57:46;2.63;;;1.55;;
773;SDS011;370;48.810;9.150;2024-01-07T11:00:16;3.00;;;1.65;;
773;SDS011;370;48.810;9.150;2024-01-07T11:02:49;6.28;;;1.80;;
773;SDS011;370;48.810;9.150;2024-01-07T11:05:23;7.70;;;2.45;;
773;SDS011;370;48.810;9.150;2024-01-07T11:07:55;2.53;;;1.70;;
773;SDS011;370;48.810;9.150;2024-01-07T11:10:31;5.43;;;2.70;;
773;SDS011;370;48.810;9.150;2024-01-07T11:13:03;9.10;;;2.28;;
773;SDS011;370;48.810;9.150;2024-01-07T11:18:20;2.67;;;1.38;;
773;SDS011;370;48.810;9.150;2024-01-07T11:20:47;4.10;;;1.60;;
773;SDS011;370;48.810;9.150;2024-01-07T11:23:27;6.55;;;2.70;;
773;SDS011;370;48.810;9.150;2024-01-07T11:25:56;5.45;;;2.38;;
773;SDS011;370;48.810;9.150;2024-01-07T11:28:42;2.67;;;1.58;;
773;SDS011;370;48.810;9.150;2024-01-07T11:31:11;2.88;;;2.15;;
773;SDS011;370;48.810;9.150;2024-01-07T11:33:38;2.55;;;1.73;;
773;SDS011;370;48.810;9.150;2024-01-07T11:36:07;8.20;;;2.38;;
773;SDS011;370;48.810;9.150;2024-01-07T11:38:34;10.02;;;2.03;;
773;SDS011;370;48.810;9.150;2024-01-07T11:41:02;3.88;;;1.80;;
773;SDS011;370;48.810;9.150;2024-01-07T11:43:31;2.15;;;1.48;;
773;SDS011;370;48.810;9.150;2024-01-07T11:45:59;3.58;;;2.15;;
773;SDS011;370;48.810;9.150;2024-01-07T11:48:27;2.47;;;1.90;;
773;SDS011;370;48.810;9.150;2024-01-07T11:50:54;9.35;;;1.13;;
773;SDS011;370;48.810;9.150;2024-01-07T11:53:21;4.03;;;1.88;;
773;SDS011;370;48.810;9.150;2024-01-07T11:55:48;5.70;;;2.05;;
773;SDS011;370;48.810;9.150;2024-01-07T11:58:14;3.22;;;1.70;;
773;SDS011;370;48.810;9.150;2024-01-07T12:00:41;3.35;;;1.70;;
773;SDS011;370;48.810;9.150;2024-01-07T12:03:08;1.67;;;1.10;;
773;SDS011;370;48.810;9.150;2024-01-07T12:05:36;2.78;;;2.13;;
773;SDS011;370;48.810;9.150;2024-01-07T12:08:03;5.00;;;1.77;;
773;SDS011;370;48.810;9.150;2024-01-07T12:10:31;2.42;;;1.42;;
773;SDS011;370;48.810;9.150;2024-01-07T12:12:57;3.80;;;2.60;;
773;SDS011;370;48.810;9.150;2024-01-07T12:15:24;2.85;;;1.50;;
773;SDS011;370;48.810;9.150;2024-01-07T12:17:55;2.65;;;1.85;;
773;SDS011;370;48.810;9.150;2024-01-07T12:20:23;3.65;;;1.95;;
773;SDS011;370;48.810;9.150;2024-01-07T12:22:51;6.68;;;2.35;;
773;SDS011;370;48.810;9.150;2024-01-07T12:25:21;3.17;;;2.10;;
773;SDS011;370;48.810;9.150;2024-01-07T12:27:49;4.35;;;2.10;;
773;SDS011;370;48.810;9.150;2024-01-07T12:30:18;5.85;;;2.30;;
773;SDS011;370;48.810;9.150;2024-01-07T12:32:45;3.58;;;1.95;;
773;SDS011;370;48.810;9.150;2024-01-07T12:35:11;4.32;;;2.17;;
773;SDS011;370;48.810;9.150;2024-01-07T12:37:38;5.50;;;1.90;;
773;SDS011;370;48.810;9.150;2024-01-07T12:40:07;7.47;;;2.10;;
773;SDS011;370;48.810;9.150;2024-01-07T12:42:36;2.80;;;1.80;;
773;SDS011;370;48.810;9.150;2024-01-07T12:45:05;6.28;;;1.85;;
773;SDS011;370;48.810;9.150;2024-01-07T12:47:34;1.70;;;0.98;;
773;SDS011;370;48.810;9.150;2024-01-07T12:50:01;3.22;;;2.45;;
773;SDS011;370;48.810;9.150;2024-01-07T12:52:28;1.80;;;1.77;;
773;SDS011;370;48.810;9.150;2024-01-07T12:54:54;2.42;;;2.00;;
773;SDS011;370;48.810;9.150;2024-01-07T12:57:23;1.95;;;1.65;;
773;SDS011;370;48.810;9.150;2024-01-07T12:59:50;3.80;;;2.03;;
773;SDS011;370;48.810;9.150;2024-01-07T13:02:16;10.88;;;2.13;;
773;SDS011;370;48.810;9.150;2024-01-07T13:04:43;2.95;;;1.85;;
773;SDS011;370;48.810;9.150;2024-01-07T13:07:10;3.70;;;2.10;;
773;SDS011;370;48.810;9.150;2024-01-07T13:09:37;7.22;;;2.80;;
773;SDS011;370;48.810;9.150;2024-01-07T13:12:04;2.25;;;1.55;;
773;SDS011;370;48.810;9.150;2024-01-07T13:14:32;4.07;;;1.90;;
773;SDS011;370;48.810;9.150;2024-01-07T13:16:59;4.22;;;2.03;;
773;SDS011;370;48.810;9.150;2024-01-07T13:19:26;6.63;;;3.63;;
773;SDS011;370;48.810;9.150;2024-01-07T13:21:52;5.43;;;2.75;;
773;SDS011;370;48.810;9.150;2024-01-07T13:24:23;8.02;;;2.53;;
773;SDS011;370;48.810;9.150;2024-01-07T13:26:49;7.40;;;2.47;;
773;SDS011;370;48.810;9.150;2024-01-07T13:29:16;3.33;;;2.70;;
773;SDS011;370;48.810;9.150;2024-01-07T13:31:44;8.23;;;3.38;;
773;SDS011;370;48.810;9.150;2024-01-07T13:34:11;3.65;;;2.42;;
773;SDS011;370;48.810;9.150;2024-01-07T13:36:39;5.80;;;2.55;;
773;SDS011;370;48.810;9.150;2024-01-07T13:39:06;3.25;;;2.35;;
773;SDS011;370;48.810;9.150;2024-01-07T13:41:33;3.03;;;2.35;;
773;SDS011;370;48.810;9.150;2024-01-07T13:44:00;3.58;;;2.47;;
773;SDS011;370;48.810;9.150;2024-01-07T13:46:28;5.32;;;2.47;;
773;SDS011;370;48.810;9.150;2024-01-07T13:48:56;14.23;;;3.08;;
773;SDS011;370;48.810;9.150;2024-01-07T13:51:23;3.30;;;2.25;;
773;SDS011;370;48.810;9.150;2024-01-07T13:53:50;3.70;;;1.85;;
773;SDS011;370;48.810;9.150;2024-01-07T13:56:17;3.05;;;2.15;;
773;SDS011;370;48.810;9.150;2024-01-07T13:58:44;8.45;;;2.63;;
773;SDS011;370;48.810;9.150;2024-01-07T14:01:12;2.75;;;2.15;;
773;SDS011;370;48.810;9.150;2024-01-07T14:03:39;5.57;;;2.90;;
773;SDS011;370;48.810;9.150;2024-01-07T14:06:08;7.30;;;2.80;;
773;SDS011;370;48.810;9.150;2024-01-07T14:08:36;7.93;;;2.47;;
773;SDS011;370;48.810;9.150;2024-01-07T14:11:03;2.92;;;1.50;;
773;SDS011;370;48.810;9.150;2024-01-07T14:13:32;5.28;;;3.20;;
773;SDS011;370;48.810;9.150;2024-01-07T14:15:59;5.13;;;1.83;;
773;SDS011;370;48.810;9.150;2024-01-07T14:18:25;4.78;;;2.28;;
773;SDS011;370;48.810;9.150;2024-01-07T14:20:53;7.07;;;2.97;;
773;SDS011;370;48.810;9.150;2024-01-07T14:23:21;6.72;;;2.20;;
773;SDS011;370;48.810;9.150;2024-01-07T14:25:48;4.35;;;2.33;;
773;SDS011;370;48.810;9.150;2024-01-07T14:28:14;4.85;;;2.30;;
773;SDS011;370;48.810;9.150;2024-01-07T14:30:41;8.70;;;2.78;;
773;SDS011;370;48.810;9.150;2024-01-07T14:33:08;8.18;;;2.75;;
773;SDS011;370;48.810;9.150;2024-01-07T14:35:35;4.85;;;2.70;;
773;SDS011;370;48.810;9.150;2024-01-07T14:38:02;7.10;;;2.33;;
773;SDS011;370;48.810;9.150;2024-01-07T14:40:30;3.38;;;2.60;;
773;SDS011;370;48.810;9.150;2024-01-07T14:42:57;8.60;;;2.63;;
773;SDS011;370;48.810;9.150;2024-01-07T14:45:24;3.35;;;1.80;;
773;SDS011;370;48.810;9.150;2024-01-07T14:47:51;4.50;;;2.50;;
773;SDS011;370;48.810;9.150;2024-01-07T14:50:18;5.15;;;2.45;;
773;SDS011;370;48.810;9.150;2024-01-07T14:52:45;3.85;;;1.77;;
773;SDS011;370;48.810;9.150;2024-01-07T14:55:12;5.45;;;2.83;;
773;SDS011;370;48.810;9.150;2024-01-07T14:57:41;3.55;;;2.20;;
773;SDS011;370;48.810;9.150;2024-01-07T15:00:08;4.80;;;2.28;;
773;SDS011;370;48.810;9.150;2024-01-07T15:02:36;5.78;;;1.75;;
773;SDS011;370;48.810;9.150;2024-01-07T15:05:02;2.15;;;1.90;;
773;SDS011;370;48.810;9.150;2024-01-07T15:07:30;3.35;;;1.20;;
773;SDS011;370;48.810;9.150;2024-01-07T15:09:57;2.60;;;1.90;;
773;SDS011;370;48.810;9.150;2024-01-07T15:12:24;2.15;;;1.85;;
773;SDS011;370;48.810;9.150;2024-01-07T15:15:01;7.97;;;2.35;;
773;SDS011;370;48.810;9.150;2024-01-07T15:17:30;8.68;;;2.40;;
773;SDS011;370;48.810;9.150;2024-01-07T15:19:57;6.15;;;2.55;;
773;SDS011;370;48.810;9.150;2024-01-07T15:22:24;2.83;;;2.17;;
773;SDS011;370;48.810;9.150;2024-01-07T15:24:51;8.35;;;2.42;;
773;SDS011;370;48.810;9.150;2024-01-07T15:27:18;3.47;;;1.67;;
773;SDS011;370;48.810;9.150;2024-01-07T15:29:45;9.88;;;2.97;;
773;SDS011;370;48.810;9.150;2024-01-07T15:32:13;7.80;;;3.55;;
773;SDS011;370;48.810;9.150;2024-01-07T15:34:40;7.40;;;2.63;;
773;SDS011;370;48.810;9.150;2024-01-07T15:37:07;6.50;;;2.28;;
773;SDS011;370;48.810;9.150;2024-01-07T15:39:35;3.53;;;2.65;;
773;SDS011;370;48.810;9.150;2024-01-07T15:42:02;7.43;;;2.47;;
773;SDS011;370;48.810;9.150;2024-01-07T15:44:29;3.75;;;1.63;;